This is the latest recevied weather packets stored in our database for station/object KA6AKH-13. If no packets are shown the sender has not sent any weather packets the latest 10 day(s).
| Time | Temp. | Humidity | Pressure | Rain* | Wind** | Luminosity | Snow |
|---|---|---|---|---|---|---|---|
| 1777884416 | 11.67° C | 67% | 1015.3 hPa | 0 mm | - | - | - |
| 1777883155 | 11.67° C | 69% | 1015.4 hPa | 0 mm | - | - | - |
| 1777882525 | 11.67° C | 69% | 1015.4 hPa | 0 mm | - | - | - |
| 1777877005 | 10.56° C | 74% | 1015.4 hPa | 0 mm | - | - | - |
| 1777876375 | 10.56° C | 74% | 1015.5 hPa | 0 mm | - | - | - |
| 1777875775 | 10.56° C | 73% | 1015.6 hPa | 0 mm | - | - | - |
| 1777875175 | 10.56° C | 74% | 1015.7 hPa | 0 mm | - | - | - |
| 1777874575 | 10° C | 73% | 1015.8 hPa | 0 mm | - | - | - |
| 1777873945 | 10° C | 73% | 1015.7 hPa | 0 mm | - | - | - |
| 1777873345 | 10° C | 74% | 1015.7 hPa | 0 mm | - | - | - |
| 1777872745 | 10° C | 74% | 1015.6 hPa | 0 mm | - | - | - |
| 1777870225 | 9.44° C | 74% | 1015.5 hPa | 0 mm | - | - | - |
| 1777869625 | 8.89° C | 74% | 1015.5 hPa | 0 mm | - | - | - |
| 1777868425 | 8.89° C | 73% | 1015.4 hPa | 0 mm | - | - | - |
| 1777867825 | 8.89° C | 72% | 1015.5 hPa | 0 mm | - | - | - |
| 1777866596 | 8.89° C | 70% | 1015.6 hPa | 0 mm | - | - | - |
| 1777865965 | 9.44° C | 69% | 1015.4 hPa | 0 mm | - | - | - |
| 1777865379 | 9.44° C | 68% | 1015.4 hPa | 0 mm | - | - | - |
| 1777865335 | 9.44° C | 68% | 1015.4 hPa | 0 mm | - | - | - |
| 1777864222 | 9.44° C | 67% | 1015.3 hPa | 0 mm | - | - | - |
| 1777864105 | 9.44° C | 67% | 1015.3 hPa | 0 mm | - | - | - |
| 1777863475 | 10° C | 66% | 1015.3 hPa | 0 mm | - | - | - |
| 1777862961 | 10° C | 65% | 1015 hPa | 0 mm | - | - | - |
| 1777862845 | 10° C | 65% | 1015.1 hPa | 0 mm | - | - | - |
| 1777862216 | 10° C | 65% | 1015 hPa | 0 mm | - | - | - |
* Rain latest hour (hover to see other rain measurements)
** Current wind speed in m/s (hover to see current wind gust speed)